Time;durP1;ratioP1;P1;durP2;ratioP2;P2;SDS_P1;SDS_P2;PMS_P1;PMS_P2;Temp;Humidity;BMP_temperature;BMP_pressure;BME280_temperature;BME280_humidity;BME280_pressure;Samples;Min_cycle;Max_cycle;Signal;HPM_P1;HPM_P2
2021/11/24 00:00:56;;;;;;;;;;;;;;;-6.85;73.90;99856.00;6184993;23;19920;-68
2021/11/24 00:03:22;;;;;;;;;;;;;;;-6.76;73.75;99857.69;6185124;23;19927;-67
2021/11/24 00:05:48;;;;;;;;;;;;;;;-6.77;73.41;99856.81;6185089;23;19924;-67
2021/11/24 00:08:13;;;;;;;;;;;;;;;-6.73;73.31;99853.38;6184946;23;20296;-68
2021/11/24 00:10:39;;;;;;;;;;;;;;;-6.72;73.43;99855.06;6185283;23;19927;-68
2021/11/24 00:13:05;;;;;;;;;;;;;;;-6.73;73.42;99848.25;6184743;23;19920;-68
2021/11/24 00:15:31;;;;;;;;;;;;;;;-6.72;73.40;99849.06;6184753;23;19991;-67
2021/11/24 00:17:56;;;;;;;;;;;;;;;-6.74;73.40;99851.66;6185419;23;19928;-69
2021/11/24 00:20:22;;;;;;;;;;;;;;;-6.80;73.29;99848.25;6182958;23;20470;-70
2021/11/24 00:22:47;;;;;;;;;;;;;;;-6.76;73.32;99847.38;6183481;23;19952;-68
2021/11/24 00:25:13;;;;;;;;;;;;;;;-6.83;73.43;99846.53;6184516;23;20003;-66
2021/11/24 00:27:39;;;;;;;;;;;;;;;-6.81;73.41;99849.97;6183926;23;19920;-69
2021/11/24 00:30:06;;;;;;;;;;;;;;;-6.88;73.51;99853.41;6184464;23;19928;-67
2021/11/24 00:32:32;;;;;;;;;;;;;;;-6.90;73.67;99842.28;6184584;23;20335;-67
2021/11/24 00:34:57;;;;;;;;;;;;;;;-6.92;73.53;99842.28;6184634;23;19974;-68
2021/11/24 00:37:23;;;;;;;;;;;;;;;-6.94;73.63;99843.16;6183774;23;19924;-68
2021/11/24 00:39:49;;;;;;;;;;;;;;;-6.94;73.54;99844.03;6183961;23;19963;-68
2021/11/24 00:42:14;;;;;;;;;;;;;;;-6.96;73.90;99844.88;6183511;23;20259;-65
2021/11/24 00:44:40;;;;;;;;;;;;;;;-6.95;73.73;99837.16;6184410;23;19920;-67
2021/11/24 00:47:08;;;;;;;;;;;;;;;-6.97;73.75;99838.88;6184354;23;19920;-67
2021/11/24 00:49:34;;;;;;;;;;;;;;;-6.97;73.90;99840.59;6184391;23;20302;-66
2021/11/24 00:51:59;;;;;;;;;;;;;;;-7.06;73.61;99838.91;6183197;23;19920;-66
2021/11/24 00:54:25;;;;;;;;;;;;;;;-7.10;74.14;99843.19;6184488;23;19932;-68
2021/11/24 00:56:51;;;;;;;;;;;;;;;-7.13;74.52;99847.50;6185102;23;19951;-67
2021/11/24 00:59:16;;;;;;;;;;;;;;;-7.17;74.43;99836.34;6184465;23;19920;-68
2021/11/24 01:01:42;;;;;;;;;;;;;;;-7.18;74.45;99830.38;6185156;23;20011;-67
2021/11/24 01:04:07;;;;;;;;;;;;;;;-7.18;74.16;99834.63;6185342;23;20422;-69
2021/11/24 01:06:33;;;;;;;;;;;;;;;-7.22;74.68;99833.78;6186319;23;19920;-67
2021/11/24 01:08:58;;;;;;;;;;;;;;;-7.21;74.65;99827.78;6186260;23;19927;-66
2021/11/24 01:11:24;;;;;;;;;;;;;;;-7.21;74.58;99829.53;6184493;23;19998;-67
2021/11/24 01:13:50;;;;;;;;;;;;;;;-7.27;74.64;99829.53;6184537;23;19958;-67
2021/11/24 01:16:16;;;;;;;;;;;;;;;-7.25;74.65;99831.25;6182676;23;19920;-67
2021/11/24 01:18:41;;;;;;;;;;;;;;;-7.26;74.56;99826.13;6184751;23;19920;-67
2021/11/24 01:21:07;;;;;;;;;;;;;;;-7.29;74.96;99818.41;6184317;23;19951;-67
2021/11/24 01:23:33;;;;;;;;;;;;;;;-7.32;74.78;99817.53;6184538;23;19955;-67
2021/11/24 01:25:59;;;;;;;;;;;;;;;-7.37;74.94;99823.56;6185171;23;19920;-67
2021/11/24 01:28:25;;;;;;;;;;;;;;;-7.36;74.90;99820.97;6184247;23;19959;-67
2021/11/24 01:30:51;;;;;;;;;;;;;;;-7.39;75.08;99817.56;6184205;23;19966;-68
2021/11/24 01:33:16;;;;;;;;;;;;;;;-7.44;75.16;99812.41;6184627;23;19995;-67
2021/11/24 01:35:42;;;;;;;;;;;;;;;-7.44;75.52;99803.88;6184580;23;19948;-68
2021/11/24 01:38:07;;;;;;;;;;;;;;;-7.42;74.91;99802.16;6184271;23;19924;-66
2021/11/24 01:40:33;;;;;;;;;;;;;;;-7.44;75.22;99802.13;6183935;23;19939;-66
2021/11/24 01:42:59;;;;;;;;;;;;;;;-7.46;75.22;99793.59;6184197;23;19920;-66
2021/11/24 01:45:25;;;;;;;;;;;;;;;-7.47;75.01;99794.44;6183576;23;19927;-68
2021/11/24 01:47:51;;;;;;;;;;;;;;;-7.49;75.11;99799.59;6184386;23;19952;-66
2021/11/24 01:50:17;;;;;;;;;;;;;;;-7.51;75.47;99795.31;6183335;23;19927;-68
2021/11/24 01:52:43;;;;;;;;;;;;;;;-7.62;75.55;99797.06;6183478;23;19924;-69
2021/11/24 01:55:09;;;;;;;;;;;;;;;-7.58;75.64;99803.88;6183450;23;19920;-68
2021/11/24 01:57:35;;;;;;;;;;;;;;;-7.65;75.65;99801.31;6183610;23;19920;-68
2021/11/24 02:00:01;;;;;;;;;;;;;;;-7.73;75.81;99805.59;6183489;23;19943;-68
2021/11/24 02:02:29;;;;;;;;;;;;;;;-7.71;76.23;99809.03;6181458;23;20006;-68
2021/11/24 02:04:54;;;;;;;;;;;;;;;-7.75;75.41;99809.91;6183149;23;19924;-68
2021/11/24 02:07:20;;;;;;;;;;;;;;;-7.75;75.89;99804.75;6182360;23;19921;-67
2021/11/24 02:09:46;;;;;;;;;;;;;;;-7.77;75.93;99803.06;6182757;23;20375;-67
2021/11/24 02:12:12;;;;;;;;;;;;;;;-7.79;75.64;99792.75;6183349;23;19999;-70
2021/11/24 02:14:39;;;;;;;;;;;;;;;-7.81;76.02;99786.78;6182698;23;20007;-69
2021/11/24 02:17:05;;;;;;;;;;;;;;;-7.80;76.18;99794.50;6183401;23;19966;-69
2021/11/24 02:19:31;;;;;;;;;;;;;;;-7.80;76.31;99788.47;6183025;23;19921;-66
2021/11/24 02:21:57;;;;;;;;;;;;;;;-7.81;76.06;99787.63;6183266;23;19999;-68
2021/11/24 02:24:25;;;;;;;;;;;;;;;-7.82;76.05;99782.50;6182911;23;19958;-68
2021/11/24 02:26:50;;;;;;;;;;;;;;;-7.87;76.30;99784.22;6183303;23;20294;-67
2021/11/24 02:29:16;;;;;;;;;;;;;;;-7.84;75.99;99784.22;6182197;23;19944;-67
2021/11/24 02:31:45;;;;;;;;;;;;;;;-7.88;76.59;99778.22;6183401;23;20039;-66
2021/11/24 02:34:11;;;;;;;;;;;;;;;-7.90;76.39;99779.09;6182479;23;19974;-67
2021/11/24 02:36:37;;;;;;;;;;;;;;;-7.96;76.57;99770.53;6183306;23;19924;-67
2021/11/24 02:39:03;;;;;;;;;;;;;;;-7.98;76.79;99768.81;6183098;23;19950;-69
2021/11/24 02:41:29;;;;;;;;;;;;;;;-7.99;76.72;99773.13;6183139;23;19920;-68
2021/11/24 02:43:55;;;;;;;;;;;;;;;-8.00;76.56;99771.41;6183321;23;19920;-67
2021/11/24 02:46:22;;;;;;;;;;;;;;;-8.02;76.33;99774.81;6183055;23;19927;-69
2021/11/24 02:48:48;;;;;;;;;;;;;;;-8.03;76.31;99773.09;6183796;23;19925;-69
2021/11/24 02:51:13;;;;;;;;;;;;;;;-8.08;76.42;99778.22;6182248;23;19920;-69
2021/11/24 02:53:39;;;;;;;;;;;;;;;-8.08;76.75;99770.53;6180956;23;19999;-67
2021/11/24 02:56:05;;;;;;;;;;;;;;;-8.07;76.38;99773.94;6182308;23;19920;-69
2021/11/24 02:58:30;;;;;;;;;;;;;;;-8.13;76.77;99764.53;6181202;23;19920;-69
2021/11/24 03:00:58;;;;;;;;;;;;;;;-8.15;76.61;99773.94;6182385;23;19920;-69
2021/11/24 03:03:24;;;;;;;;;;;;;;;-8.20;76.55;99770.53;6181702;23;20347;-67
2021/11/24 03:05:49;;;;;;;;;;;;;;;-8.22;76.77;99764.53;6181738;23;19920;-70
2021/11/24 03:08:15;;;;;;;;;;;;;;;-8.23;76.95;99773.94;6181829;23;19974;-69
2021/11/24 03:10:40;;;;;;;;;;;;;;;-8.22;76.58;99761.97;6182610;23;19942;-66
2021/11/24 03:13:06;;;;;;;;;;;;;;;-8.22;76.53;99755.13;6183567;23;19959;-69
2021/11/24 03:15:32;;;;;;;;;;;;;;;-8.25;76.99;99759.41;6182358;23;19920;-68
2021/11/24 03:17:58;;;;;;;;;;;;;;;-8.29;77.40;99764.53;6183321;23;19932;-67
2021/11/24 03:20:26;;;;;;;;;;;;;;;-8.30;77.03;99765.41;6182782;23;19920;-69
2021/11/24 03:22:52;;;;;;;;;;;;;;;-8.31;77.03;99755.09;6183546;23;19927;-68
2021/11/24 03:25:18;;;;;;;;;;;;;;;-8.30;77.06;99752.56;6183048;23;20287;-68
2021/11/24 03:27:44;;;;;;;;;;;;;;;-8.34;76.90;99753.41;6183835;23;19920;-68
2021/11/24 03:30:11;;;;;;;;;;;;;;;-8.35;77.23;99749.16;6183454;23;19943;-67
2021/11/24 03:32:37;;;;;;;;;;;;;;;-8.38;77.41;99754.25;6183562;23;20003;-68
2021/11/24 03:35:03;;;;;;;;;;;;;;;-8.41;77.43;99751.72;6183533;23;20289;-72
2021/11/24 03:37:29;;;;;;;;;;;;;;;-8.46;77.56;99761.09;6183243;23;19968;-67
2021/11/24 03:39:54;;;;;;;;;;;;;;;-8.46;77.04;99755.97;6182372;23;19920;-67
2021/11/24 03:42:20;;;;;;;;;;;;;;;-8.49;77.51;99756.81;6183364;23;19927;-66
2021/11/24 03:44:46;;;;;;;;;;;;;;;-8.50;77.87;99752.59;6182829;23;19927;-71
2021/11/24 03:47:12;;;;;;;;;;;;;;;-8.49;77.64;99756.00;6183669;23;20279;-69
2021/11/24 03:49:38;;;;;;;;;;;;;;;-8.48;77.92;99755.13;6183736;23;19931;-68
2021/11/24 03:52:04;;;;;;;;;;;;;;;-8.52;77.94;99756.84;6184115;23;19975;-68
2021/11/24 03:54:29;;;;;;;;;;;;;;;-8.51;78.33;99752.56;6183738;23;19927;-69
2021/11/24 03:56:55;;;;;;;;;;;;;;;-8.53;78.19;99759.41;6181552;23;19921;-69
2021/11/24 03:59:21;;;;;;;;;;;;;;;-8.57;78.53;99753.41;6182596;23;19920;-72
2021/11/24 04:01:46;;;;;;;;;;;;;;;-8.56;77.83;99754.25;6184147;23;19920;-68
2021/11/24 04:04:12;;;;;;;;;;;;;;;-8.56;78.63;99762.81;6183623;23;19921;-67
2021/11/24 04:06:38;;;;;;;;;;;;;;;-8.49;78.54;99753.41;6185481;23;19928;-69
2021/11/24 04:09:03;;;;;;;;;;;;;;;-8.49;78.54;99751.69;6185379;23;20346;-68
2021/11/24 04:11:29;;;;;;;;;;;;;;;-8.43;77.95;99757.69;6184772;23;19920;-69
2021/11/24 04:13:55;;;;;;;;;;;;;;;-8.39;77.74;99764.53;6184526;23;20401;-70
2021/11/24 04:16:20;;;;;;;;;;;;;;;-8.41;77.92;99749.13;6184735;23;19920;-68
2021/11/24 04:18:48;;;;;;;;;;;;;;;-8.39;78.13;99751.69;6184834;23;19998;-69
2021/11/24 04:21:14;;;;;;;;;;;;;;;-8.39;78.15;99756.81;6185077;23;20003;-67
2021/11/24 04:23:40;;;;;;;;;;;;;;;-8.41;77.91;99746.56;6185299;23;19928;-69
2021/11/24 04:26:05;;;;;;;;;;;;;;;-8.41;78.33;99744.00;6185556;23;19921;-69
2021/11/24 04:28:31;;;;;;;;;;;;;;;-8.41;77.99;99748.25;6186181;23;19920;-68
2021/11/24 04:30:57;;;;;;;;;;;;;;;-8.43;78.29;99745.72;6185841;23;19920;-70
2021/11/24 04:33:22;;;;;;;;;;;;;;;-8.47;78.17;99749.16;6158888;23;19947;-70
2021/11/24 04:35:48;;;;;;;;;;;;;;;-8.47;78.16;99746.59;6184405;23;19932;-71
2021/11/24 04:38:14;;;;;;;;;;;;;;;-8.46;78.52;99745.72;6183722;23;20463;-71
2021/11/24 04:40:40;;;;;;;;;;;;;;;-8.48;77.89;99734.63;6183412;23;19924;-69
2021/11/24 04:43:08;;;;;;;;;;;;;;;-8.48;77.75;99744.88;6183782;23;19967;-69
2021/11/24 04:45:33;;;;;;;;;;;;;;;-8.47;77.79;99734.63;6184321;23;19952;-67
2021/11/24 04:47:59;;;;;;;;;;;;;;;-8.48;78.18;99726.94;6184986;23;19920;-72
2021/11/24 04:50:25;;;;;;;;;;;;;;;-8.52;77.98;99735.44;6184358;23;19943;-70
2021/11/24 04:52:50;;;;;;;;;;;;;;;-8.50;78.26;99731.19;6184779;23;19927;-67
2021/11/24 04:55:16;;;;;;;;;;;;;;;-8.44;78.36;99723.47;6184339;23;19927;-67
2021/11/24 04:57:42;;;;;;;;;;;;;;;-8.40;78.59;99722.63;6184605;23;19994;-69
2021/11/24 05:00:11;;;;;;;;;;;;;;;-8.27;78.78;99720.94;6184878;23;20398;-73
2021/11/24 05:02:37;;;;;;;;;;;;;;;-8.17;77.91;99717.50;6184768;23;19928;-66
2021/11/24 05:05:03;;;;;;;;;;;;;;;-8.09;77.71;99708.94;6185036;23;19962;-69
2021/11/24 05:07:29;;;;;;;;;;;;;;;-7.98;77.68;99708.06;6184340;23;19920;-65
2021/11/24 05:09:54;;;;;;;;;;;;;;;-7.89;77.41;99703.78;6184195;23;19921;-67
2021/11/24 05:12:20;;;;;;;;;;;;;;;-7.77;77.12;99701.22;6184381;23;19920;-69
2021/11/24 05:14:48;;;;;;;;;;;;;;;-7.68;77.35;99706.31;6184252;23;19921;-67
2021/11/24 05:17:16;;;;;;;;;;;;;;;-7.60;76.63;99705.44;6184202;23;20209;-72
2021/11/24 05:19:47;;;;;;;;;;;;;;;-7.55;76.80;99709.72;6185067;23;19920;-70
2021/11/24 05:22:12;;;;;;;;;;;;;;;-7.47;76.45;99699.41;6184293;23;19927;-69
2021/11/24 05:24:38;;;;;;;;;;;;;;;-7.42;76.43;99702.81;6184128;23;20442;-69
2021/11/24 05:27:04;;;;;;;;;;;;;;;-7.44;76.02;99694.25;6182937;23;20390;-68
2021/11/24 05:29:29;;;;;;;;;;;;;;;-7.40;76.16;99700.25;6184195;23;19966;-65
2021/11/24 05:31:55;;;;;;;;;;;;;;;-7.39;76.25;99700.25;6184448;23;19954;-65
2021/11/24 05:34:21;;;;;;;;;;;;;;;-7.34;76.12;99693.38;6184167;23;19920;-66
2021/11/24 05:36:47;;;;;;;;;;;;;;;-7.27;76.23;99685.66;6184096;23;19943;-67
2021/11/24 05:39:12;;;;;;;;;;;;;;;-7.33;76.07;99681.38;6182632;23;19920;-65
2021/11/24 05:41:42;;;;;;;;;;;;;;;-7.28;76.01;99681.38;6183963;23;20307;-67
2021/11/24 05:44:26;;;;;;;;;;;;;;;-7.31;76.09;99680.50;6182323;23;19935;-66
2021/11/24 05:46:56;;;;;;;;;;;;;;;-7.23;75.98;99679.63;6184156;23;19920;-67
2021/11/24 05:49:22;;;;;;;;;;;;;;;-7.18;75.82;99672.75;6183869;23;20051;-64
2021/11/24 05:51:48;;;;;;;;;;;;;;;-7.18;75.65;99665.91;6184280;23;19924;-67
2021/11/24 05:54:14;;;;;;;;;;;;;;;-7.24;75.54;99659.94;6182946;23;19927;-66
2021/11/24 05:56:40;;;;;;;;;;;;;;;-7.29;75.93;99656.53;6182555;23;20019;-68
2021/11/24 05:59:06;;;;;;;;;;;;;;;-7.21;76.24;99657.38;6183925;23;20468;-67
2021/11/24 06:01:32;;;;;;;;;;;;;;;-7.12;75.93;99649.59;6183328;23;19924;-67
2021/11/24 06:03:58;;;;;;;;;;;;;;;-6.93;75.58;99652.06;6184071;23;19924;-65
2021/11/24 06:06:24;;;;;;;;;;;;;;;-6.76;75.43;99655.38;6183927;23;19948;-68
2021/11/24 06:08:49;;;;;;;;;;;;;;;-6.60;75.03;99658.69;6182675;23;19995;-67
2021/11/24 06:11:15;;;;;;;;;;;;;;;-6.52;74.53;99656.06;6183936;23;19926;-69
2021/11/24 06:13:40;;;;;;;;;;;;;;;-6.51;74.66;99648.31;6184259;23;20422;-71
2021/11/24 06:16:06;;;;;;;;;;;;;;;-6.40;74.34;99653.38;6184061;23;19967;-66
2021/11/24 06:18:32;;;;;;;;;;;;;;;-6.47;74.51;99649.16;6183785;23;19927;-69
2021/11/24 06:20:58;;;;;;;;;;;;;;;-6.50;74.77;99649.19;6184002;23;19948;-70
2021/11/24 06:23:23;;;;;;;;;;;;;;;-6.44;74.82;99645.69;6184136;23;19920;-69
2021/11/24 06:25:49;;;;;;;;;;;;;;;-6.44;75.02;99649.13;6183971;23;19951;-69
2021/11/24 06:28:14;;;;;;;;;;;;;;;-6.36;75.09;99642.19;6183430;23;19920;-67
2021/11/24 06:30:40;;;;;;;;;;;;;;;-6.23;74.82;99627.50;6183880;23;19927;-69
2021/11/24 06:33:06;;;;;;;;;;;;;;;-6.12;74.65;99624.81;6183396;23;20328;-67
2021/11/24 06:35:32;;;;;;;;;;;;;;;-6.05;74.58;99611.03;6181118;23;19920;-70
2021/11/24 06:37:57;;;;;;;;;;;;;;;-6.00;73.93;99617.88;6156818;23;19943;-73
2021/11/24 06:40:23;;;;;;;;;;;;;;;-6.01;74.13;99617.00;6180673;23;19986;-68
2021/11/24 06:42:49;;;;;;;;;;;;;;;-6.07;74.14;99615.34;6156055;23;19924;-68
2021/11/24 06:45:24;;;;;;;;;;;;;;;-5.98;73.91;99608.38;6182315;23;20248;-68
2021/11/24 06:47:50;;;;;;;;;;;;;;;-5.94;73.56;99612.63;6181608;23;19920;-70
2021/11/24 06:50:15;;;;;;;;;;;;;;;-6.00;73.68;99603.25;6181306;23;19928;-67
2021/11/24 06:52:41;;;;;;;;;;;;;;;-5.99;73.83;99598.94;6131698;23;19999;-69
2021/11/24 06:55:07;;;;;;;;;;;;;;;-5.92;73.67;99603.13;6181159;23;19920;-68
2021/11/24 06:57:33;;;;;;;;;;;;;;;-5.88;73.57;99592.78;6182105;23;19920;-69
2021/11/24 06:59:58;;;;;;;;;;;;;;;-5.89;73.63;99592.81;6182630;23;19947;-69
2021/11/24 07:02:24;;;;;;;;;;;;;;;-5.95;73.43;99580.00;6181294;23;19920;-69
2021/11/24 07:04:50;;;;;;;;;;;;;;;-5.88;73.61;99581.63;6182598;23;19925;-68
2021/11/24 07:07:15;;;;;;;;;;;;;;;-5.77;73.48;99571.19;6180963;23;20007;-68
2021/11/24 07:09:41;;;;;;;;;;;;;;;-5.79;73.43;99571.22;6181015;23;19920;-67
2021/11/24 07:12:08;;;;;;;;;;;;;;;-5.62;73.31;99572.75;6180739;23;19920;-68
2021/11/24 07:14:33;;;;;;;;;;;;;;;-5.78;73.30;99577.22;6181386;23;19920;-69
2021/11/24 07:17:00;;;;;;;;;;;;;;;-5.59;73.20;99583.03;6182606;23;19924;-69
2021/11/24 07:19:26;;;;;;;;;;;;;;;-5.59;73.05;99573.56;6182558;23;19920;-68
2021/11/24 07:21:52;;;;;;;;;;;;;;;-5.53;73.09;99580.38;6183035;23;20004;-69
2021/11/24 07:24:29;;;;;;;;;;;;;;;-5.49;72.95;99576.88;6183090;23;19955;-70
2021/11/24 07:26:55;;;;;;;;;;;;;;;-5.40;72.82;99569.00;6157735;23;19920;-66
2021/11/24 07:29:22;;;;;;;;;;;;;;;-5.27;72.70;99567.13;6183112;23;19920;-69
2021/11/24 07:31:48;;;;;;;;;;;;;;;-5.16;71.93;99585.00;6180616;23;20002;-69
2021/11/24 07:34:13;;;;;;;;;;;;;;;-5.12;71.88;99578.94;6155916;23;19924;-71
2021/11/24 07:36:39;;;;;;;;;;;;;;;-5.08;71.64;99588.31;6181388;23;20406;-69
2021/11/24 07:39:05;;;;;;;;;;;;;;;-5.07;71.65;99581.44;6183301;23;19920;-69
2021/11/24 07:41:31;;;;;;;;;;;;;;;-5.05;71.52;99579.69;6182330;23;20038;-70
2021/11/24 07:43:56;;;;;;;;;;;;;;;-5.04;71.71;99571.94;6134222;23;19920;-67
2021/11/24 07:46:22;;;;;;;;;;;;;;;-4.77;71.48;99574.09;6183558;23;20259;-66
2021/11/24 07:48:48;;;;;;;;;;;;;;;-4.82;70.70;99568.16;6183719;23;20379;-70
2021/11/24 07:51:17;;;;;;;;;;;;;;;-4.72;70.88;99565.41;6182452;23;20044;-68
2021/11/24 07:53:44;;;;;;;;;;;;;;;-4.72;70.77;99557.69;6182069;23;19925;-69
2021/11/24 07:56:10;;;;;;;;;;;;;;;-4.59;70.77;99547.16;6182224;23;19920;-71
2021/11/24 07:58:35;;;;;;;;;;;;;;;-4.47;70.44;99554.69;6181704;23;20260;-69
2021/11/24 08:01:01;;;;;;;;;;;;;;;-4.33;69.98;99558.75;6183193;23;19920;-70
2021/11/24 08:03:27;;;;;;;;;;;;;;;-4.39;69.33;99542.50;6184532;23;20011;-66
2021/11/24 08:05:52;;;;;;;;;;;;;;;-4.35;69.43;99547.59;6183402;23;19952;-66
2021/11/24 08:08:18;;;;;;;;;;;;;;;-4.46;69.71;99542.63;6184889;23;19931;-69
2021/11/24 08:10:44;;;;;;;;;;;;;;;-4.34;69.44;99536.41;6184357;23;20002;-69
2021/11/24 08:13:10;;;;;;;;;;;;;;;-4.24;69.23;99538.78;6183531;23;19920;-66
2021/11/24 08:15:36;;;;;;;;;;;;;;;-4.26;69.13;99524.19;6184866;23;20314;-70
2021/11/24 08:18:05;;;;;;;;;;;;;;;-4.22;69.08;99520.69;6185118;23;20359;-69
2021/11/24 08:20:36;;;;;;;;;;;;;;;-4.19;67.96;99515.44;6160064;23;19920;-67
2021/11/24 08:23:01;;;;;;;;;;;;;;;-4.15;68.28;99514.53;6185288;23;20233;-68
2021/11/24 08:25:27;;;;;;;;;;;;;;;-4.07;67.79;99510.03;6184972;23;20315;-67
2021/11/24 08:27:53;;;;;;;;;;;;;;;-3.92;67.76;99505.47;6185017;23;19920;-67
2021/11/24 08:30:20;;;;;;;;;;;;;;;-3.89;67.39;99495.03;6184097;23;20009;-69
2021/11/24 08:32:45;;;;;;;;;;;;;;;-3.84;67.40;99506.13;6183613;23;19999;-70
2021/11/24 08:35:11;;;;;;;;;;;;;;;-3.70;67.45;99516.19;6185354;23;19947;-68
2021/11/24 08:37:37;;;;;;;;;;;;;;;-3.65;66.79;99501.44;6185208;23;19942;-69
2021/11/24 08:40:03;;;;;;;;;;;;;;;-3.61;66.52;99497.91;6183854;23;19951;-70
2021/11/24 08:42:29;;;;;;;;;;;;;;;-3.58;67.02;99491.81;6184647;23;19924;-68
2021/11/24 08:44:54;;;;;;;;;;;;;;;-3.52;66.54;99476.16;6184958;23;19999;-69
2021/11/24 08:47:20;;;;;;;;;;;;;;;-3.44;66.59;99484.59;6183431;23;19920;-67
2021/11/24 08:49:46;;;;;;;;;;;;;;;-3.42;66.35;99487.97;6184048;23;19970;-66
2021/11/24 08:52:12;;;;;;;;;;;;;;;-3.38;66.06;99472.41;6185062;23;20366;-68
2021/11/24 08:54:39;;;;;;;;;;;;;;;-3.52;66.66;99465.81;6184373;23;19943;-70
2021/11/24 08:57:05;;;;;;;;;;;;;;;-3.49;66.18;99475.22;6182162;23;19963;-71
2021/11/24 08:59:33;;;;;;;;;;;;;;;-3.53;66.66;99474.44;6183744;23;19920;-69
2021/11/24 09:01:59;;;;;;;;;;;;;;;-3.52;66.78;99460.66;6182936;23;19920;-69
2021/11/24 09:04:25;;;;;;;;;;;;;;;-3.40;66.66;99462.13;6183568;23;20283;-68
2021/11/24 09:06:51;;;;;;;;;;;;;;;-3.39;66.73;99450.84;6183651;23;19928;-70
2021/11/24 09:09:17;;;;;;;;;;;;;;;-3.25;66.32;99447.97;6183682;23;19951;-69
2021/11/24 09:11:42;;;;;;;;;;;;;;;-3.22;66.11;99440.13;6182171;23;20328;-69
2021/11/24 09:14:08;;;;;;;;;;;;;;;-3.26;66.20;99430.75;6183875;23;19925;-69
2021/11/24 09:16:33;;;;;;;;;;;;;;;-3.35;66.25;99430.97;6157180;23;20015;-69
2021/11/24 09:18:59;;;;;;;;;;;;;;;-3.34;66.33;99424.91;6183854;23;19975;-67
2021/11/24 09:21:25;;;;;;;;;;;;;;;-3.30;66.93;99424.81;6183309;23;19924;-69
2021/11/24 09:23:59;;;;;;;;;;;;;;;-3.17;66.11;99425.34;6182290;23;19955;-68
2021/11/24 09:26:40;;;;;;;;;;;;;;;-3.29;66.45;99420.47;6159135;23;20267;-67
2021/11/24 09:29:07;;;;;;;;;;;;;;;-3.24;66.20;99423.78;6184029;23;20091;-68
2021/11/24 09:31:33;;;;;;;;;;;;;;;-3.33;66.67;99418.84;6157982;23;20232;-67
2021/11/24 09:34:00;;;;;;;;;;;;;;;-3.28;66.61;99411.81;6183983;23;20314;-70
2021/11/24 09:36:28;;;;;;;;;;;;;;;-3.26;67.17;99405.72;6183170;23;20007;-71
2021/11/24 09:38:59;;;;;;;;;;;;;;;-3.07;66.99;99410.44;6184214;23;20014;-68
2021/11/24 09:41:25;;;;;;;;;;;;;;;-3.10;66.32;99401.03;6156602;23;20386;-68
2021/11/24 09:43:53;;;;;;;;;;;;;;;-3.21;66.52;99403.03;6183583;23;19920;-71
2021/11/24 09:46:18;;;;;;;;;;;;;;;-3.18;67.23;99392.59;6156299;23;19974;-69
2021/11/24 09:48:45;;;;;;;;;;;;;;;-3.06;67.02;99381.09;6183446;23;19924;-69
2021/11/24 09:51:11;;;;;;;;;;;;;;;-3.04;66.50;99373.28;6183546;23;19927;-68
2021/11/24 09:53:37;;;;;;;;;;;;;;;-3.15;66.63;99365.84;6183440;23;19926;-69
2021/11/24 09:56:03;;;;;;;;;;;;;;;-3.20;67.23;99368.53;6181694;23;19940;-69
2021/11/24 09:58:28;;;;;;;;;;;;;;;-3.05;66.91;99361.25;6182822;23;20358;-69
2021/11/24 10:00:54;;;;;;;;;;;;;;;-3.07;66.73;99363.03;6183027;23;20325;-68
2021/11/24 10:03:20;;;;;;;;;;;;;;;-3.02;66.81;99358.59;6182298;23;19920;-69
2021/11/24 10:05:47;;;;;;;;;;;;;;;-3.02;66.95;99356.00;6182288;23;20023;-68
2021/11/24 10:08:12;;;;;;;;;;;;;;;-3.02;67.60;99348.25;6183242;23;19948;-67
2021/11/24 10:10:38;;;;;;;;;;;;;;;-2.98;67.04;99342.97;6184247;23;19924;-66
2021/11/24 10:13:04;;;;;;;;;;;;;;;-3.11;67.25;99336.41;6182497;23;19920;-67
2021/11/24 10:15:41;;;;;;;;;;;;;;;-3.18;67.58;99327.94;6184016;23;19999;-69
2021/11/24 10:18:13;;;;;;;;;;;;;;;-3.15;67.76;99325.28;6183931;23;20324;-66
2021/11/24 10:20:46;;;;;;;;;;;;;;;-3.10;68.10;99326.00;6183859;23;19920;-69
2021/11/24 10:23:20;;;;;;;;;;;;;;;-3.09;68.16;99313.91;6183399;23;20294;-68
2021/11/24 10:25:46;;;;;;;;;;;;;;;-3.16;68.88;99304.66;6183643;23;20348;-67
2021/11/24 10:28:26;;;;;;;;;;;;;;;-3.04;69.19;99311.22;6183885;23;20003;-66
2021/11/24 10:30:55;;;;;;;;;;;;;;;-2.96;68.95;99309.28;6183893;23;20015;-68
2021/11/24 10:33:20;;;;;;;;;;;;;;;-2.83;68.68;99300.28;6182463;23;20438;-69
2021/11/24 10:36:01;;;;;;;;;;;;;;;-2.95;68.50;99306.63;6183952;23;20007;-68
2021/11/24 10:38:27;;;;;;;;;;;;;;;-2.89;68.72;99290.09;6181386;23;19920;-67
2021/11/24 10:40:52;;;;;;;;;;;;;;;-2.88;68.90;99284.00;6181929;23;19920;-67
2021/11/24 10:43:18;;;;;;;;;;;;;;;-2.89;69.25;99276.31;6183738;23;19963;-67
2021/11/24 10:45:56;;;;;;;;;;;;;;;-2.84;69.11;99277.00;6183884;23;19923;-68
2021/11/24 10:48:31;;;;;;;;;;;;;;;-2.82;69.28;99270.91;6182246;23;20003;-68
2021/11/24 10:50:59;;;;;;;;;;;;;;;-2.68;69.25;99256.72;6183838;23;20010;-67
2021/11/24 10:53:25;;;;;;;;;;;;;;;-2.69;69.16;99253.28;6182209;23;19963;-70
2021/11/24 10:55:51;;;;;;;;;;;;;;;-2.68;69.24;99260.16;6183614;23;19920;-68
2021/11/24 10:58:25;;;;;;;;;;;;;;;-2.78;69.50;99258.72;6181969;23;19920;-69
2021/11/24 11:01:22;;;;;;;;;;;;;;;-2.68;69.68;99252.41;6128151;23;19921;-68
2021/11/24 11:03:48;;;;;;;;;;;;;;;-2.67;69.57;99240.31;6183951;23;19917;-67
2021/11/24 11:06:27;;;;;;;;;;;;;;;-2.57;69.86;99236.53;6183401;23;19942;-68
2021/11/24 11:08:59;;;;;;;;;;;;;;;-2.47;69.63;99234.50;6182065;23;19952;-67
2021/11/24 11:11:28;;;;;;;;;;;;;;;-2.51;69.32;99233.75;6181412;23;20294;-67
2021/11/24 11:14:16;;;;;;;;;;;;;;;-2.56;69.42;99214.09;6159579;23;19928;-73
2021/11/24 11:16:55;;;;;;;;;;;;;;;-2.58;70.18;99215.88;6180732;23;19924;-67
2021/11/24 11:19:40;;;;;;;;;;;;;;;-2.58;69.90;99216.72;6182214;23;19923;-68
2021/11/24 11:22:06;;;;;;;;;;;;;;;-2.65;70.43;99200.53;6182364;23;20340;-68
2021/11/24 11:24:32;;;;;;;;;;;;;;;-2.54;70.30;99196.75;6183270;23;19927;-72
2021/11/24 11:26:58;;;;;;;;;;;;;;;-2.54;70.00;99192.44;6183135;23;19920;-74
2021/11/24 11:29:24;;;;;;;;;;;;;;;-2.61;70.29;99194.34;6181918;23;19920;-68
2021/11/24 11:31:50;;;;;;;;;;;;;;;-2.60;70.60;99209.00;6184023;23;19920;-71
2021/11/24 11:34:15;;;;;;;;;;;;;;;-2.55;70.77;99187.31;6181624;23;19920;-72
2021/11/24 11:36:47;;;;;;;;;;;;;;;-2.54;70.58;99170.88;6182650;23;20295;-73
2021/11/24 11:39:13;;;;;;;;;;;;;;;-2.55;70.67;99164.84;6207066;23;19971;-71
2021/11/24 11:41:39;;;;;;;;;;;;;;;-2.45;70.64;99160.22;6183098;23;19924;-72
2021/11/24 11:44:05;;;;;;;;;;;;;;;-2.42;70.48;99148.94;6181899;23;19920;-75
2021/11/24 11:46:35;;;;;;;;;;;;;;;-2.39;70.37;99138.44;6181999;23;19928;-69
2021/11/24 11:49:11;;;;;;;;;;;;;;;-2.36;70.12;99136.63;6182459;23;19927;-73
2021/11/24 11:51:39;;;;;;;;;;;;;;;-2.38;70.19;99130.66;6205638;23;19928;-72
2021/11/24 11:54:09;;;;;;;;;;;;;;;-2.36;70.22;99133.19;6180700;23;19920;-73
2021/11/24 11:56:35;;;;;;;;;;;;;;;-2.30;69.99;99128.66;6182053;23;19959;-69
2021/11/24 11:59:01;;;;;;;;;;;;;;;-2.28;70.08;99116.50;6182063;23;19927;-71
2021/11/24 12:01:28;;;;;;;;;;;;;;;-2.30;69.88;99107.09;6183322;23;19920;-72
2021/11/24 12:03:57;;;;;;;;;;;;;;;-2.29;70.20;99098.44;6183323;23;19927;-73
2021/11/24 12:06:26;;;;;;;;;;;;;;;-2.27;69.95;99106.97;6183419;23;20329;-71
2021/11/24 12:09:06;;;;;;;;;;;;;;;-2.31;70.19;99097.63;6183404;23;19920;-67
2021/11/24 12:11:51;;;;;;;;;;;;;;;-2.21;70.07;99095.56;6183286;23;20251;-71
2021/11/24 12:14:35;;;;;;;;;;;;;;;-2.27;70.08;99081.06;6183268;23;19926;-72
2021/11/24 12:17:10;;;;;;;;;;;;;;;-2.24;70.21;99062.84;6183416;23;19942;-69
2021/11/24 12:19:36;;;;;;;;;;;;;;;-2.19;70.47;99057.53;6181553;23;19920;-69
2021/11/24 12:22:01;;;;;;;;;;;;;;;-2.22;70.45;99066.22;6182094;23;20367;-71
2021/11/24 12:24:40;;;;;;;;;;;;;;;-2.18;70.46;99052.28;6184597;23;19920;-68
2021/11/24 12:27:06;;;;;;;;;;;;;;;-2.12;70.26;99067.59;6185544;23;19920;-67
2021/11/24 12:29:47;;;;;;;;;;;;;;;-2.16;70.38;99058.22;6185111;23;19920;-72
2021/11/24 12:32:14;;;;;;;;;;;;;;;-2.14;70.55;99040.91;6185273;23;19928;-67
2021/11/24 12:34:47;;;;;;;;;;;;;;;-2.16;70.59;99047.88;6185926;23;20339;-70
2021/11/24 12:37:22;;;;;;;;;;;;;;;-2.18;70.88;99048.81;6183857;23;19920;-71
2021/11/24 12:39:47;;;;;;;;;;;;;;;-2.15;71.38;99043.56;6183848;23;19927;-68
2021/11/24 12:42:13;;;;;;;;;;;;;;;-2.09;71.66;99042.47;6185187;23;19920;-72
2021/11/24 12:44:52;;;;;;;;;;;;;;;-2.15;72.07;99033.19;6184907;23;20007;-72
2021/11/24 12:47:21;;;;;;;;;;;;;;;-2.18;72.55;99028.97;6186481;23;19920;-72